Terminal Aerodrome Forecast
Issued by NWS

Home | Current Version | Previous Version | Text Only | Print | Product List | Glossary On
Versions: 1 2 3 4 5 6 7 8 9 10 11 12 13 14 15
000
FTUS44 KCRP 250500
TAFALI
TAF
KALI 250532Z 2506/2606 VRB04KT P6SM FEW015 SCT250
     FM251000 00000KT 5SM BR SCT015 BKN250
      TEMPO 2510/2513 2SM BR
     FM251400 17007KT P6SM SCT040 BKN250
     FM251900 14011KT P6SM VCTS SCT050CB BKN250 PROB30 2520/2524
      VRB20G30KT TSRA BKN030CB
     FM260200 14007KT P6SM FEW030 BKN250=

USA.gov is the U.S. government's official web portal to all federal, state and local government web resources and services.